Time;durP1;ratioP1;P1;durP2;ratioP2;P2;SDS_P1;SDS_P2;PMS_P1;PMS_P2;Temp;Humidity;BMP_temperature;BMP_pressure;BME280_temperature;BME280_humidity;BME280_pressure;Samples;Min_cycle;Max_cycle;Signal;HPM_P1;HPM_P2
2023/09/29 00:00:48;;;;;;;5.75;2.50;;;23.50;61.90;;;;;;6185059;23;20420;-76
2023/09/29 00:03:15;;;;;;;3.17;2.65;;;23.60;62.60;;;;;;6183808;23;20076;-78
2023/09/29 00:05:43;;;;;;;17.33;2.92;;;23.60;62.00;;;;;;6184426;23;20474;-77
2023/09/29 00:08:09;;;;;;;3.50;2.55;;;23.50;61.80;;;;;;6184707;23;20008;-77
2023/09/29 00:10:39;;;;;;;4.85;2.67;;;23.50;61.90;;;;;;6158082;23;20012;-78
2023/09/29 00:13:06;;;;;;;4.60;2.40;;;23.60;61.80;;;;;;6184401;23;20356;-77
2023/09/29 00:15:33;;;;;;;4.63;2.33;;;23.60;61.60;;;;;;6183575;23;20005;-77
2023/09/29 00:17:59;;;;;;;6.45;2.72;;;23.60;61.70;;;;;;6183162;23;20020;-77
2023/09/29 00:20:25;;;;;;;4.72;2.53;;;23.60;61.60;;;;;;6183347;23;20080;-77
2023/09/29 00:22:56;;;;;;;4.97;2.33;;;23.60;61.50;;;;;;6184515;23;20036;-78
2023/09/29 00:25:22;;;;;;;3.90;2.40;;;23.60;61.40;;;;;;6184562;23;20016;-79
2023/09/29 00:27:48;;;;;;;6.65;2.90;;;23.60;61.10;;;;;;6158361;23;20060;-78
2023/09/29 00:30:14;;;;;;;4.90;2.30;;;23.60;61.00;;;;;;6184361;23;20351;-78
2023/09/29 00:32:50;;;;;;;4.18;2.63;;;23.60;60.80;;;;;;6184241;23;20012;-78
2023/09/29 00:37:51;;;;;;;4.63;2.67;;;23.60;61.00;;;;;;6186251;23;20016;-79
2023/09/29 00:40:17;;;;;;;6.10;3.05;;;23.60;61.00;;;;;;6183850;23;19997;-78
2023/09/29 00:42:43;;;;;;;3.67;2.15;;;23.60;61.30;;;;;;6184435;23;20404;-78
2023/09/29 00:45:10;;;;;;;5.18;2.80;;;23.60;61.20;;;;;;6184100;23;20063;-78
2023/09/29 00:47:37;;;;;;;6.00;2.72;;;23.60;61.00;;;;;;6158377;23;20040;-78
2023/09/29 00:50:09;;;;;;;4.30;2.83;;;23.60;61.00;;;;;;6183812;23;20012;-77
2023/09/29 00:52:38;;;;;;;4.55;2.53;;;23.60;60.70;;;;;;6184377;23;20367;-78
2023/09/29 00:55:11;;;;;;;8.48;3.25;;;23.60;60.90;;;;;;6157944;23;20001;-78
2023/09/29 00:57:40;;;;;;;11.00;3.13;;;23.60;61.20;;;;;;6159757;23;20087;-78
2023/09/29 01:02:52;;;;;;;3.47;2.78;;;23.50;61.00;;;;;;6186234;23;20469;-80
2023/09/29 01:05:18;;;;;;;3.38;2.67;;;23.50;61.00;;;;;;6186122;23;20028;-80
2023/09/29 01:07:44;;;;;;;3.78;2.50;;;23.50;61.10;;;;;;6186949;23;20001;-80
2023/09/29 01:10:15;;;;;;;5.38;2.60;;;23.40;61.10;;;;;;6185657;23;20016;-80
2023/09/29 01:12:41;;;;;;;3.97;2.75;;;23.40;61.00;;;;;;6185584;23;20037;-80
2023/09/29 01:15:12;;;;;;;5.18;2.65;;;23.40;61.20;;;;;;6186168;23;20081;-79
2023/09/29 01:17:39;;;;;;;6.05;2.45;;;23.40;61.20;;;;;;6186228;23;20007;-79
2023/09/29 01:20:12;;;;;;;7.97;2.80;;;23.40;61.30;;;;;;6185499;23;20036;-79
2023/09/29 01:22:45;;;;;;;4.40;2.35;;;23.30;61.30;;;;;;6185874;23;20077;-79
2023/09/29 01:25:12;;;;;;;3.78;2.40;;;23.30;61.50;;;;;;6186759;23;20008;-79
2023/09/29 01:27:37;;;;;;;4.25;2.78;;;23.30;61.60;;;;;;6186677;23;20005;-79
2023/09/29 01:30:04;;;;;;;5.03;2.28;;;23.20;61.60;;;;;;6185785;23;20011;-79
2023/09/29 01:32:30;;;;;;;3.63;2.17;;;23.20;61.60;;;;;;6186578;23;20012;-79
2023/09/29 01:34:56;;;;;;;6.22;2.90;;;23.20;61.90;;;;;;6186210;23;20001;-78
2023/09/29 01:37:21;;;;;;;3.25;2.53;;;23.20;61.90;;;;;;6186285;23;20084;-78
2023/09/29 01:39:47;;;;;;;4.60;2.58;;;23.20;61.60;;;;;;6158348;23;20001;-79
2023/09/29 01:42:13;;;;;;;4.72;2.10;;;23.20;61.50;;;;;;6185938;23;20005;-80
2023/09/29 01:44:39;;;;;;;3.88;2.30;;;23.20;61.60;;;;;;6186276;23;20412;-80
2023/09/29 01:47:04;;;;;;;6.75;2.20;;;23.20;61.70;;;;;;6158717;23;20009;-79
2023/09/29 01:49:30;;;;;;;2.97;2.20;;;23.20;61.70;;;;;;6185471;23;20009;-79
2023/09/29 01:51:56;;;;;;;3.85;2.83;;;23.20;61.80;;;;;;6185330;23;20019;-79
2023/09/29 01:54:23;;;;;;;3.33;2.45;;;23.10;61.90;;;;;;6185825;23;20080;-79
2023/09/29 01:56:49;;;;;;;4.10;2.40;;;23.10;62.00;;;;;;6186053;23;20305;-80
2023/09/29 01:59:14;;;;;;;2.67;2.22;;;23.10;61.90;;;;;;6185739;23;20004;-81
2023/09/29 02:01:40;;;;;;;5.78;2.30;;;23.10;62.20;;;;;;6185733;23;20001;-81
2023/09/29 02:04:06;;;;;;;3.47;2.83;;;23.10;62.10;;;;;;6185633;23;20108;-79
2023/09/29 02:06:31;;;;;;;2.85;2.03;;;23.20;62.30;;;;;;6184788;23;20032;-80
2023/09/29 02:08:57;;;;;;;3.60;2.30;;;23.10;62.40;;;;;;6185991;23;20043;-80
2023/09/29 02:11:23;;;;;;;5.95;2.63;;;23.10;62.50;;;;;;6185077;23;20423;-80
2023/09/29 02:13:49;;;;;;;4.82;2.22;;;23.10;62.70;;;;;;6186171;23;20005;-80
2023/09/29 02:16:15;;;;;;;5.88;2.55;;;23.00;62.30;;;;;;6185160;23;20080;-79
2023/09/29 02:18:41;;;;;;;5.32;2.60;;;23.00;62.40;;;;;;6185287;23;19997;-79
2023/09/29 02:21:07;;;;;;;4.95;3.03;;;23.00;62.50;;;;;;6185089;23;20319;-77
2023/09/29 02:23:33;;;;;;;3.80;2.42;;;23.00;62.50;;;;;;6185501;23;20005;-77
2023/09/29 02:26:00;;;;;;;4.32;2.70;;;22.90;62.70;;;;;;6185988;23;20007;-78
2023/09/29 02:28:30;;;;;;;7.22;2.70;;;23.00;62.60;;;;;;6185594;23;20001;-78
2023/09/29 02:30:57;;;;;;;3.30;2.35;;;23.00;62.70;;;;;;6185281;23;20005;-78
2023/09/29 02:33:24;;;;;;;3.33;2.33;;;23.00;62.90;;;;;;6185748;23;20005;-78
2023/09/29 02:35:50;;;;;;;5.13;2.50;;;22.90;62.80;;;;;;6185766;23;20001;-79
2023/09/29 02:38:16;;;;;;;5.85;2.83;;;22.90;62.90;;;;;;6184431;23;20051;-78
2023/09/29 02:40:42;;;;;;;2.67;2.30;;;22.80;62.90;;;;;;6185235;23;20013;-78
2023/09/29 02:43:09;;;;;;;5.00;2.53;;;22.80;62.90;;;;;;6184968;23;20005;-78
2023/09/29 02:45:41;;;;;;;4.30;2.42;;;22.80;63.40;;;;;;6158736;23;20005;-79
2023/09/29 02:48:07;;;;;;;5.10;2.70;;;22.80;63.40;;;;;;6184453;23;20439;-79
2023/09/29 02:50:36;;;;;;;4.93;3.00;;;22.80;63.60;;;;;;6185111;23;20001;-79
2023/09/29 02:53:02;;;;;;;4.32;2.50;;;22.80;63.80;;;;;;6184726;23;20001;-79
2023/09/29 02:55:28;;;;;;;3.88;2.42;;;22.80;63.90;;;;;;6184364;23;20093;-79
2023/09/29 02:57:54;;;;;;;3.83;2.95;;;22.70;63.70;;;;;;6183927;23;20009;-79
2023/09/29 03:00:21;;;;;;;5.25;2.65;;;22.70;63.90;;;;;;6184539;23;20001;-79
2023/09/29 03:02:48;;;;;;;4.25;2.45;;;22.60;63.90;;;;;;6185099;23;20001;-79
2023/09/29 03:05:15;;;;;;;5.32;2.75;;;22.60;64.10;;;;;;6185968;23;20084;-79
2023/09/29 03:07:41;;;;;;;5.22;2.90;;;22.50;64.10;;;;;;6184467;23;20005;-79
2023/09/29 03:10:08;;;;;;;5.18;2.25;;;22.50;64.30;;;;;;6184360;23;20005;-80
2023/09/29 03:12:36;;;;;;;4.95;3.00;;;22.50;64.50;;;;;;6185008;23;20005;-80
2023/09/29 03:15:01;;;;;;;3.97;2.80;;;22.40;64.70;;;;;;6184704;23;20002;-79
2023/09/29 03:17:30;;;;;;;2.88;2.20;;;22.30;65.00;;;;;;6184511;23;20327;-80
2023/09/29 03:19:59;;;;;;;3.60;2.60;;;22.30;65.20;;;;;;6184903;23;20368;-79
2023/09/29 03:22:25;;;;;;;3.75;3.03;;;22.20;65.50;;;;;;6184757;23;20037;-79
2023/09/29 03:24:50;;;;;;;6.68;2.50;;;22.10;65.70;;;;;;6184588;23;20408;-79
2023/09/29 03:27:18;;;;;;;5.38;2.70;;;22.10;65.90;;;;;;6184521;23;20028;-78
2023/09/29 03:29:44;;;;;;;3.53;2.70;;;22.00;66.10;;;;;;6184674;23;20431;-77
2023/09/29 03:32:10;;;;;;;5.13;3.03;;;22.00;66.40;;;;;;6185060;23;20011;-76
2023/09/29 03:34:42;;;;;;;3.95;3.00;;;22.00;66.50;;;;;;6185456;23;20029;-76
2023/09/29 03:37:07;;;;;;;3.60;2.60;;;21.90;66.70;;;;;;6184248;23;20001;-76
2023/09/29 03:39:33;;;;;;;5.28;2.70;;;21.90;67.10;;;;;;6184433;23;20290;-77
2023/09/29 03:41:59;;;;;;;7.68;2.80;;;21.90;67.20;;;;;;6185206;23;20103;-79
2023/09/29 03:44:25;;;;;;;8.50;3.45;;;21.80;67.20;;;;;;6158082;23;20017;-79
2023/09/29 03:46:51;;;;;;;3.10;2.78;;;21.80;67.40;;;;;;6157339;23;20013;-78
2023/09/29 03:49:19;;;;;;;5.40;2.78;;;21.90;67.90;;;;;;6158173;23;20012;-79
2023/09/29 03:51:45;;;;;;;4.47;2.97;;;21.90;68.00;;;;;;6182304;23;20080;-78
2023/09/29 03:54:10;;;;;;;5.30;2.70;;;21.90;67.90;;;;;;6183961;23;20036;-78
2023/09/29 03:56:36;;;;;;;5.78;2.70;;;22.00;67.70;;;;;;6185088;23;20020;-79
2023/09/29 03:59:02;;;;;;;5.82;2.75;;;22.00;67.60;;;;;;6184892;23;20005;-78
2023/09/29 04:01:27;;;;;;;10.13;3.35;;;22.00;67.50;;;;;;6158615;23;20005;-78
2023/09/29 04:03:56;;;;;;;4.30;2.55;;;22.00;67.40;;;;;;6184006;23;20039;-78
2023/09/29 04:06:22;;;;;;;3.33;2.63;;;22.00;67.50;;;;;;6158194;23;20048;-78
2023/09/29 04:08:48;;;;;;;3.78;2.25;;;22.10;67.50;;;;;;6184389;23;20056;-78
2023/09/29 04:11:13;;;;;;;4.95;2.78;;;22.10;67.50;;;;;;6184412;23;20005;-79
2023/09/29 04:13:41;;;;;;;8.60;2.72;;;22.10;67.50;;;;;;6157854;23;20005;-79
2023/09/29 04:16:08;;;;;;;3.53;2.63;;;22.10;67.40;;;;;;6183710;23;20011;-79
2023/09/29 04:18:35;;;;;;;4.15;2.47;;;22.10;67.30;;;;;;6184665;23;20081;-76
2023/09/29 04:21:01;;;;;;;4.00;2.35;;;22.20;67.20;;;;;;6157518;23;20029;-79
2023/09/29 04:23:28;;;;;;;3.95;2.70;;;22.20;67.30;;;;;;6184075;23;20731;-79
2023/09/29 04:25:54;;;;;;;3.65;2.53;;;22.20;67.40;;;;;;6184378;23;20005;-80
2023/09/29 04:28:23;;;;;;;3.17;2.25;;;22.20;67.40;;;;;;6184893;23;20072;-79
2023/09/29 04:30:48;;;;;;;2.90;2.35;;;22.20;67.20;;;;;;6184578;23;20005;-79
2023/09/29 04:33:14;;;;;;;4.60;2.63;;;22.30;67.20;;;;;;6183732;23;20005;-77
2023/09/29 04:35:40;;;;;;;4.97;3.05;;;22.30;66.90;;;;;;6184524;23;20005;-77
2023/09/29 04:38:06;;;;;;;3.10;2.55;;;22.30;67.00;;;;;;6183893;23;20331;-76
2023/09/29 04:40:31;;;;;;;5.13;2.50;;;22.20;66.90;;;;;;6183197;23;20311;-78
2023/09/29 04:42:57;;;;;;;5.90;2.33;;;22.20;67.00;;;;;;6184286;23;20028;-78
2023/09/29 04:45:23;;;;;;;6.43;2.67;;;22.10;66.80;;;;;;6184002;23;20005;-78
2023/09/29 04:47:49;;;;;;;11.45;3.50;;;22.10;67.00;;;;;;6158257;23;20009;-78
2023/09/29 04:50:15;;;;;;;6.20;2.28;;;22.00;67.10;;;;;;6183748;23;20007;-79
2023/09/29 04:52:44;;;;;;;6.82;3.08;;;22.00;67.30;;;;;;6184170;23;20406;-79
2023/09/29 04:55:10;;;;;;;3.97;2.50;;;21.90;67.30;;;;;;6183606;23;20355;-78
2023/09/29 04:57:36;;;;;;;5.43;2.80;;;21.90;67.50;;;;;;6158074;23;20009;-77
2023/09/29 05:00:03;;;;;;;4.63;2.70;;;21.90;67.50;;;;;;6183872;23;19997;-77
2023/09/29 05:02:30;;;;;;;5.05;2.83;;;21.90;67.70;;;;;;6158111;23;20016;-78
2023/09/29 05:04:56;;;;;;;3.08;2.50;;;21.80;67.70;;;;;;6184108;23;20028;-77
2023/09/29 05:07:22;;;;;;;4.07;2.30;;;21.80;67.90;;;;;;6157662;23;20013;-77
2023/09/29 05:09:48;;;;;;;6.65;2.85;;;21.70;68.00;;;;;;6183167;23;20012;-77
2023/09/29 05:12:14;;;;;;;4.70;2.95;;;21.70;68.30;;;;;;6156980;23;20023;-78
2023/09/29 05:14:40;;;;;;;6.05;2.55;;;21.70;68.40;;;;;;6156905;23;20009;-77
2023/09/29 05:17:07;;;;;;;3.72;2.58;;;21.60;68.60;;;;;;6183323;23;20048;-77
2023/09/29 05:19:32;;;;;;;6.80;3.00;;;21.60;68.90;;;;;;6183926;23;20005;-78
2023/09/29 05:21:58;;;;;;;7.00;2.80;;;21.50;69.20;;;;;;6182699;23;20031;-76
2023/09/29 05:24:24;;;;;;;5.13;3.25;;;21.50;69.40;;;;;;6154912;23;20005;-78
2023/09/29 05:26:49;;;;;;;5.63;2.78;;;21.50;69.70;;;;;;6180630;23;20005;-78
2023/09/29 05:29:15;;;;;;;3.58;2.92;;;21.40;70.00;;;;;;6182161;23;20087;-78
2023/09/29 05:31:57;;;;;;;3.42;2.55;;;21.40;70.00;;;;;;6156363;23;20064;-80
2023/09/29 05:34:23;;;;;;;4.88;2.92;;;21.40;70.30;;;;;;6179350;23;20005;-79
2023/09/29 05:36:48;;;;;;;3.22;2.80;;;21.30;70.30;;;;;;6154978;23;20006;-80
2023/09/29 05:39:14;;;;;;;4.93;3.10;;;21.30;70.40;;;;;;6183258;23;20005;-79
2023/09/29 05:41:40;;;;;;;6.07;3.20;;;21.30;70.50;;;;;;6158726;23;20017;-84
2023/09/29 05:44:06;;;;;;;4.82;3.35;;;21.20;70.50;;;;;;6187127;23;20005;-83
2023/09/29 05:46:38;;;;;;;6.05;3.28;;;21.20;70.60;;;;;;6183936;23;20474;-81
2023/09/29 05:49:10;;;;;;;5.22;3.15;;;21.20;70.70;;;;;;6159563;23;20044;-82
2023/09/29 05:51:36;;;;;;;6.15;2.78;;;21.20;70.80;;;;;;6184107;23;20008;-80
2023/09/29 05:54:03;;;;;;;4.05;3.30;;;21.20;71.10;;;;;;6184094;23;19998;-82
2023/09/29 05:56:31;;;;;;;7.75;3.45;;;21.20;71.20;;;;;;6185285;23;20005;-78
2023/09/29 05:58:57;;;;;;;4.40;3.20;;;21.20;71.30;;;;;;6184671;23;20032;-80
2023/09/29 06:01:25;;;;;;;10.77;4.15;;;21.30;71.40;;;;;;6184733;23;20063;-79
2023/09/29 06:03:52;;;;;;;7.70;3.88;;;21.30;71.30;;;;;;6158725;23;20092;-78
2023/09/29 06:06:18;;;;;;;5.47;3.08;;;21.30;71.50;;;;;;6185398;23;20005;-78
2023/09/29 06:08:44;;;;;;;7.28;3.78;;;21.30;71.70;;;;;;6159367;23;20380;-78
2023/09/29 06:11:11;;;;;;;5.65;3.55;;;21.30;71.80;;;;;;6186637;23;20428;-84
2023/09/29 06:13:40;;;;;;;6.88;4.07;;;21.30;71.80;;;;;;6186176;23;20032;-85
2023/09/29 06:16:06;;;;;;;8.45;3.03;;;21.30;71.80;;;;;;6186360;23;20028;-84
2023/09/29 06:18:32;;;;;;;4.90;3.10;;;21.30;71.90;;;;;;6185876;23;19997;-85
2023/09/29 06:20:58;;;;;;;5.00;3.33;;;21.30;71.90;;;;;;6186141;23;20075;-85
2023/09/29 06:23:23;;;;;;;5.70;3.35;;;21.40;72.10;;;;;;6185356;23;20001;-83
2023/09/29 06:25:59;;;;;;;6.40;3.35;;;21.40;72.30;;;;;;6185636;23;20005;-82
2023/09/29 06:28:26;;;;;;;6.93;3.40;;;21.40;72.10;;;;;;6185494;23;20100;-82
2023/09/29 06:30:53;;;;;;;7.20;3.67;;;21.40;72.00;;;;;;6185209;23;20001;-83
2023/09/29 06:33:20;;;;;;;5.38;3.00;;;21.50;72.20;;;;;;6185360;23;20084;-81
2023/09/29 06:35:45;;;;;;;6.80;2.83;;;21.50;71.90;;;;;;6184808;23;20007;-79
2023/09/29 06:38:11;;;;;;;7.55;3.90;;;21.60;71.70;;;;;;6185313;23;20005;-80
2023/09/29 06:40:37;;;;;;;17.15;3.13;;;21.60;71.80;;;;;;6184699;23;20076;-82
2023/09/29 06:43:03;;;;;;;6.75;3.03;;;21.60;71.80;;;;;;6185415;23;20072;-81
2023/09/29 06:45:30;;;;;;;5.78;3.30;;;21.70;71.80;;;;;;6184302;23;20001;-82
2023/09/29 06:47:56;;;;;;;5.13;3.10;;;21.70;71.70;;;;;;6184816;23;20001;-83
2023/09/29 06:50:22;;;;;;;8.55;3.20;;;21.70;71.60;;;;;;6185329;23;20009;-82
2023/09/29 06:52:48;;;;;;;6.70;3.53;;;21.70;71.50;;;;;;6185636;23;20001;-82
2023/09/29 06:55:14;;;;;;;5.00;3.53;;;21.70;71.50;;;;;;6185092;23;20001;-83
2023/09/29 06:57:41;;;;;;;5.90;3.70;;;21.70;71.70;;;;;;6182472;23;20017;-82
2023/09/29 07:00:08;;;;;;;5.78;3.13;;;21.80;71.90;;;;;;6186154;23;20004;-81
2023/09/29 07:02:34;;;;;;;3.95;2.92;;;21.80;71.90;;;;;;6184685;23;20005;-76
2023/09/29 07:05:00;;;;;;;7.20;3.35;;;21.80;71.60;;;;;;6184809;23;20320;-76
2023/09/29 07:07:25;;;;;;;4.65;3.13;;;21.90;71.40;;;;;;6159478;23;20478;-76
2023/09/29 07:09:51;;;;;;;5.88;3.17;;;21.90;71.50;;;;;;6158536;23;20005;-76
2023/09/29 07:12:17;;;;;;;7.25;2.97;;;22.00;71.40;;;;;;6185750;23;20406;-76
2023/09/29 07:14:42;;;;;;;3.78;2.72;;;22.10;71.50;;;;;;6158642;23;20001;-76
2023/09/29 07:17:08;;;;;;;7.68;3.28;;;22.10;71.60;;;;;;6179962;23;20001;-76
2023/09/29 07:19:34;;;;;;;5.55;3.55;;;22.20;71.70;;;;;;6183828;23;20316;-76
2023/09/29 07:22:01;;;;;;;6.80;3.30;;;22.30;71.60;;;;;;6184626;23;20008;-76
2023/09/29 07:24:27;;;;;;;7.55;3.75;;;22.30;71.50;;;;;;6184575;23;20320;-76
2023/09/29 07:26:53;;;;;;;7.75;4.35;;;22.40;71.20;;;;;;6181413;23;20005;-81
2023/09/29 07:29:18;;;;;;;6.32;3.70;;;22.50;70.90;;;;;;6184013;23;20028;-81
2023/09/29 07:31:48;;;;;;;11.00;3.70;;;22.60;70.90;;;;;;6184484;23;20060;-83
2023/09/29 07:34:17;;;;;;;5.50;2.92;;;22.60;71.10;;;;;;6184750;23;20001;-75
2023/09/29 07:36:48;;;;;;;5.30;3.40;;;22.80;70.80;;;;;;6184699;23;20064;-82
2023/09/29 07:39:14;;;;;;;4.30;2.83;;;22.80;70.50;;;;;;6184486;23;20224;-83
2023/09/29 07:41:40;;;;;;;5.35;3.28;;;22.90;70.50;;;;;;6181991;23;20348;-82
2023/09/29 07:44:09;;;;;;;7.53;3.60;;;23.00;70.30;;;;;;6157714;23;20005;-83
2023/09/29 07:46:36;;;;;;;6.40;3.05;;;23.20;70.00;;;;;;6183952;23;20327;-76
2023/09/29 07:49:02;;;;;;;6.75;2.83;;;23.30;69.60;;;;;;6180584;23;20025;-75
2023/09/29 07:51:29;;;;;;;10.30;3.28;;;23.40;69.40;;;;;;6183313;23;20005;-76
2023/09/29 07:53:56;;;;;;;6.47;2.65;;;23.50;69.40;;;;;;6153681;23;20075;-76
2023/09/29 07:56:21;;;;;;;4.60;2.90;;;23.60;69.00;;;;;;6184641;23;20001;-81
2023/09/29 07:58:47;;;;;;;4.45;2.55;;;23.70;68.20;;;;;;6184524;23;20009;-83
2023/09/29 08:01:13;;;;;;;17.85;3.35;;;23.80;67.60;;;;;;6184485;23;20023;-78
2023/09/29 08:03:38;;;;;;;3.95;2.80;;;23.90;67.30;;;;;;6184793;23;19997;-78
2023/09/29 08:06:04;;;;;;;6.57;2.90;;;24.10;67.20;;;;;;6157845;23;20499;-77
2023/09/29 08:08:30;;;;;;;8.32;2.60;;;24.20;67.00;;;;;;6184421;23;20007;-79
2023/09/29 08:10:56;;;;;;;11.85;2.80;;;24.30;66.70;;;;;;6157988;23;20001;-79
2023/09/29 08:13:23;;;;;;;7.18;2.75;;;24.40;66.60;;;;;;6183672;23;20013;-76
2023/09/29 08:15:49;;;;;;;10.82;3.08;;;24.50;66.00;;;;;;6183885;23;20332;-77
2023/09/29 08:18:17;;;;;;;5.93;2.80;;;24.60;65.40;;;;;;6182580;23;19997;-77
2023/09/29 08:20:43;;;;;;;5.38;2.60;;;24.80;65.60;;;;;;6183502;23;20009;-76
2023/09/29 08:23:08;;;;;;;6.45;2.78;;;24.80;66.00;;;;;;6157931;23;20005;-76
2023/09/29 08:25:34;;;;;;;4.85;2.83;;;25.00;65.60;;;;;;6184781;23;20005;-76
2023/09/29 08:28:03;;;;;;;5.07;2.53;;;25.20;65.60;;;;;;6184838;23;20011;-76
2023/09/29 08:30:29;;;;;;;2.72;2.22;;;25.30;65.20;;;;;;6185250;23;20001;-77
2023/09/29 08:32:54;;;;;;;3.97;2.53;;;25.40;64.90;;;;;;6185064;23;20025;-76
2023/09/29 08:35:20;;;;;;;4.57;2.22;;;25.50;64.00;;;;;;6184588;23;20319;-76
2023/09/29 08:37:47;;;;;;;4.05;2.22;;;25.60;63.20;;;;;;6178401;23;20001;-76
2023/09/29 08:40:14;;;;;;;6.07;2.50;;;25.70;63.10;;;;;;6182917;23;19997;-76
2023/09/29 08:42:45;;;;;;;4.47;2.28;;;25.90;61.60;;;;;;6183210;23;20055;-77
2023/09/29 08:45:12;;;;;;;3.47;2.00;;;26.00;62.20;;;;;;6182059;23;20064;-76
2023/09/29 08:47:40;;;;;;;6.35;2.53;;;26.00;61.50;;;;;;6177897;23;20008;-76
2023/09/29 08:50:08;;;;;;;3.30;2.55;;;26.20;61.50;;;;;;6182833;23;20029;-77
2023/09/29 08:52:35;;;;;;;7.72;2.55;;;26.20;60.50;;;;;;6158203;23;20009;-78
2023/09/29 08:55:04;;;;;;;5.05;2.58;;;26.40;60.60;;;;;;6184050;23;19997;-77
2023/09/29 08:57:30;;;;;;;4.70;2.35;;;26.50;59.50;;;;;;6183721;23;20012;-77
2023/09/29 08:59:58;;;;;;;10.07;3.58;;;26.60;60.00;;;;;;6183477;23;20047;-79
2023/09/29 09:02:26;;;;;;;6.95;2.70;;;26.70;60.00;;;;;;6183875;23;20056;-79
2023/09/29 09:04:53;;;;;;;3.85;2.65;;;26.90;59.80;;;;;;6184201;23;20446;-82
2023/09/29 09:07:22;;;;;;;3.25;2.20;;;27.10;57.60;;;;;;6179513;23;20009;-85
2023/09/29 09:09:58;;;;;;;3.33;2.20;;;27.00;57.90;;;;;;6158030;23;20012;-81
2023/09/29 09:12:35;;;;;;;3.63;1.95;;;27.10;58.30;;;;;;6158277;23;20029;-81
2023/09/29 09:15:05;;;;;;;7.78;3.22;;;27.30;58.30;;;;;;6154387;23;20013;-80
2023/09/29 09:17:32;;;;;;;3.53;2.33;;;27.40;55.40;;;;;;6183355;23;20447;-80
2023/09/29 09:19:58;;;;;;;4.43;2.20;;;27.50;56.70;;;;;;6159760;23;20005;-81
2023/09/29 09:22:26;;;;;;;5.78;2.40;;;27.60;56.10;;;;;;6186194;23;20012;-81
2023/09/29 09:25:02;;;;;;;4.45;2.20;;;27.70;56.70;;;;;;6159363;23;20032;-80
2023/09/29 09:27:41;;;;;;;5.20;2.20;;;27.80;56.10;;;;;;6185126;23;20012;-81
2023/09/29 09:30:23;;;;;;;4.80;2.03;;;28.00;56.30;;;;;;6184955;23;20001;-80
2023/09/29 09:32:49;;;;;;;5.85;2.45;;;28.10;54.50;;;;;;6184791;23;20013;-84
2023/09/29 09:35:28;;;;;;;10.20;2.20;;;28.20;54.70;;;;;;6184017;23;20072;-84
2023/09/29 09:37:55;;;;;;;4.57;2.33;;;28.30;54.10;;;;;;6183980;23;20488;-84
2023/09/29 09:40:24;;;;;;;4.90;2.20;;;28.40;53.90;;;;;;6182206;23;20120;-84
2023/09/29 09:42:53;;;;;;;5.90;2.95;;;28.50;54.20;;;;;;6185635;23;20088;-84
2023/09/29 09:45:24;;;;;;;3.55;2.47;;;28.50;54.20;;;;;;6186545;23;20084;-84
2023/09/29 09:47:52;;;;;;;2.63;2.17;;;28.70;53.50;;;;;;6185293;23;20008;-84
2023/09/29 09:50:19;;;;;;;7.15;2.72;;;28.70;53.80;;;;;;6185752;23;20008;-83
2023/09/29 09:52:51;;;;;;;4.47;2.30;;;28.80;53.60;;;;;;6183008;23;20001;-84
2023/09/29 09:55:18;;;;;;;4.15;2.17;;;28.90;53.60;;;;;;6185856;23;20324;-84
2023/09/29 09:57:50;;;;;;;5.25;2.38;;;29.00;53.50;;;;;;6186190;23;20005;-84
2023/09/29 10:00:15;;;;;;;5.88;2.60;;;29.10;52.90;;;;;;6186230;23;20028;-85
2023/09/29 10:02:45;;;;;;;6.78;2.78;;;29.30;52.20;;;;;;6184784;23;20028;-86
2023/09/29 10:05:16;;;;;;;3.50;2.20;;;29.30;50.20;;;;;;6185233;23;20036;-86
2023/09/29 10:07:49;;;;;;;4.85;2.33;;;29.30;51.30;;;;;;6185912;23;20075;-86
2023/09/29 10:10:31;;;;;;;3.42;2.10;;;29.40;51.50;;;;;;6160384;23;20005;-85
2023/09/29 10:12:58;;;;;;;4.57;2.38;;;29.50;52.20;;;;;;6186485;23;20092;-86
2023/09/29 10:15:29;;;;;;;2.30;1.98;;;29.60;52.40;;;;;;6185797;23;20023;-86
2023/09/29 10:17:56;;;;;;;5.07;2.10;;;29.70;51.10;;;;;;6159489;23;20005;-86
2023/09/29 10:20:26;;;;;;;4.28;2.05;;;29.80;51.30;;;;;;6182364;23;20099;-86
2023/09/29 10:23:08;;;;;;;;;;;29.90;50.50;;;;;;6186225;23;20062;-86
2023/09/29 10:25:38;;;;;;;3.75;2.30;;;29.90;49.30;;;;;;6185425;23;19900;-86
2023/09/29 10:28:08;;;;;;;;;;;29.90;50.90;;;;;;6186463;23;20005;-86
2023/09/29 10:30:35;;;;;;;5.15;2.25;;;30.10;50.40;;;;;;6185176;23;20018;-86
2023/09/29 10:33:07;;;;;;;3.83;1.90;;;30.20;50.70;;;;;;6159181;23;20435;-86
2023/09/29 10:35:34;;;;;;;6.22;2.40;;;30.30;50.90;;;;;;6185587;23;20072;-85
2023/09/29 10:38:08;;;;;;;3.67;1.83;;;30.40;50.70;;;;;;6185249;23;20005;-84
2023/09/29 10:40:36;;;;;;;3.03;2.08;;;30.50;48.90;;;;;;6158904;23;20331;-86
2023/09/29 10:43:03;;;;;;;6.15;2.72;;;30.50;49.90;;;;;;6185309;23;20080;-86
2023/09/29 10:45:36;;;;;;;4.10;2.28;;;30.50;50.00;;;;;;6159559;23;20005;-85
2023/09/29 10:48:09;;;;;;;4.35;1.98;;;30.70;49.80;;;;;;6186011;23;20008;-86
2023/09/29 10:50:46;;;;;;;3.75;2.20;;;30.80;49.90;;;;;;6186074;23;20493;-86
2023/09/29 10:53:12;;;;;;;7.32;3.33;;;31.00;49.60;;;;;;6186023;23;20080;-86
2023/09/29 10:55:56;;;;;;;4.10;2.08;;;31.20;49.80;;;;;;6158689;23;20801;-86
2023/09/29 10:58:22;;;;;;;4.18;1.90;;;31.30;48.20;;;;;;6185416;23;20024;-86
2023/09/29 11:00:50;;;;;;;4.20;3.00;;;31.40;48.00;;;;;;6185171;23;20327;-86
2023/09/29 11:03:21;;;;;;;3.60;2.20;;;31.50;47.70;;;;;;6185345;23;20032;-86
2023/09/29 11:05:55;;;;;;;3.50;1.75;;;31.60;47.80;;;;;;6185306;23;20009;-86
2023/09/29 11:08:29;;;;;;;2.97;2.03;;;31.80;47.60;;;;;;6185003;23;20009;-86
2023/09/29 11:10:55;;;;;;;7.80;2.38;;;32.00;46.90;;;;;;6158930;23;20005;-77
2023/09/29 11:13:22;;;;;;;4.13;1.88;;;32.10;43.70;;;;;;6158741;23;20511;-77
2023/09/29 11:15:49;;;;;;;3.40;1.95;;;32.10;45.30;;;;;;6184622;23;20424;-77
2023/09/29 11:18:45;;;;;;;5.47;2.25;;;32.10;45.90;;;;;;6184778;23;20003;-77
2023/09/29 11:21:12;;;;;;;2.42;1.75;;;32.40;46.40;;;;;;6185463;23;19997;-77
2023/09/29 11:23:40;;;;;;;3.42;2.22;;;32.60;44.10;;;;;;6159459;23;20005;-77
2023/09/29 11:26:10;;;;;;;4.05;1.95;;;32.70;45.10;;;;;;6185047;23;20096;-77
2023/09/29 11:28:42;;;;;;;;;;;32.80;44.80;;;;;;6186082;23;20001;-77
2023/09/29 11:31:11;;;;;;;2.80;2.15;;;33.10;45.20;;;;;;6185298;23;20251;-77
2023/09/29 11:33:40;;;;;;;4.72;2.50;;;33.30;46.40;;;;;;6185644;23;20072;-77
2023/09/29 11:36:13;;;;;;;3.50;2.13;;;33.50;46.10;;;;;;6185631;23;20003;-77
2023/09/29 11:38:38;;;;;;;6.93;2.13;;;33.70;43.80;;;;;;6185321;23;20068;-77
2023/09/29 11:41:05;;;;;;;3.85;2.50;;;33.80;43.70;;;;;;6184777;23;20032;-77
2023/09/29 11:43:33;;;;;;;4.70;2.20;;;33.90;44.60;;;;;;6185240;23;20416;-77
2023/09/29 11:45:59;;;;;;;4.00;2.05;;;34.10;43.30;;;;;;6184231;23;20017;-78
2023/09/29 11:48:24;;;;;;;3.13;2.42;;;34.20;44.10;;;;;;6214769;23;20001;-78
2023/09/29 11:50:53;;;;;;;5.22;2.47;;;34.30;44.70;;;;;;6215035;23;20017;-78
2023/09/29 11:53:19;;;;;;;6.28;2.30;;;34.40;44.70;;;;;;6214992;23;20001;-78
2023/09/29 11:55:45;;;;;;;5.15;2.00;;;34.50;45.20;;;;;;6188300;23;20004;-78
2023/09/29 11:58:11;;;;;;;2.83;2.00;;;34.60;44.10;;;;;;6214790;23;20064;-78
2023/09/29 12:00:37;;;;;;;3.60;1.80;;;34.60;43.10;;;;;;6214581;23;19997;-78
2023/09/29 12:03:06;;;;;;;4.63;2.00;;;34.70;43.10;;;;;;6214340;23;20382;-78
2023/09/29 12:05:34;;;;;;;7.47;2.00;;;34.80;42.50;;;;;;6214699;23;20001;-78
2023/09/29 12:08:00;;;;;;;4.38;2.25;;;34.80;42.20;;;;;;6188576;23;20513;-86
2023/09/29 12:10:28;;;;;;;2.53;1.77;;;34.90;42.20;;;;;;6215291;23;20064;-85
2023/09/29 12:12:54;;;;;;;3.38;2.08;;;35.00;42.70;;;;;;6215030;23;20005;-86
2023/09/29 12:15:20;;;;;;;3.22;2.17;;;35.10;43.40;;;;;;6215127;23;20069;-86
2023/09/29 12:17:46;;;;;;;4.45;2.00;;;35.30;43.10;;;;;;6215016;23;20470;-86
2023/09/29 12:20:14;;;;;;;5.10;2.50;;;35.40;42.70;;;;;;6215102;23;20067;-86
2023/09/29 12:22:45;;;;;;;3.42;2.08;;;35.50;43.10;;;;;;6188351;23;20009;-85
2023/09/29 12:25:13;;;;;;;4.10;2.70;;;35.60;43.50;;;;;;6214822;23;20007;-86
2023/09/29 12:27:43;;;;;;;8.75;2.70;;;35.70;43.30;;;;;;6214504;23;20000;-86
2023/09/29 12:30:12;;;;;;;5.00;2.38;;;35.70;43.40;;;;;;6216023;23;20032;-87
2023/09/29 12:32:42;;;;;;;3.25;2.38;;;35.60;44.10;;;;;;6215964;23;20092;-85
2023/09/29 12:35:14;;;;;;;;;;;35.60;43.60;;;;;;6215463;23;20004;-87
2023/09/29 12:37:42;;;;;;;3.45;2.20;;;35.50;43.50;;;;;;6215184;23;20322;-85
2023/09/29 12:40:09;;;;;;;3.33;2.25;;;35.40;43.40;;;;;;6210617;23;20009;-86
2023/09/29 12:42:35;;;;;;;6.97;2.75;;;35.40;43.40;;;;;;6212801;23;20429;-86
2023/09/29 12:45:02;;;;;;;4.15;2.10;;;35.30;43.10;;;;;;6213177;23;20005;-86
2023/09/29 12:47:27;;;;;;;4.35;2.35;;;35.20;43.10;;;;;;6187256;23;20024;-77
2023/09/29 12:49:53;;;;;;;3.45;2.22;;;35.10;42.90;;;;;;6185131;23;20001;-78
2023/09/29 12:52:19;;;;;;;5.03;2.40;;;35.00;42.80;;;;;;6184063;23;20008;-78
2023/09/29 12:54:45;;;;;;;3.50;2.17;;;34.90;42.80;;;;;;6183619;23;20011;-77